メインページ
METAR-TAF:

METAR-TAF

空港 :

イスタンブル-アタテュルク, トルコ

アタテュルク国際空港

緯度: 40-58N, 経度: 028-49E, 海抜: 48m

現時点の気象観測

当レポートは40分前の05:20(UTC)に作成
変向風 7kt
気温 26°C
湿度 74%
気圧 1013 hPa
視程10km以上
高度1200ftの雲はほとんどない
高度2000ftの雲は散在している

METAR: LTBA 200520Z VRB07KT 9999 FEW012 SCT020 26/21 Q1013 NOSIG RMK RWY17L 02008KT 350V050 RWY05 01009KT RWY23 04009KT

時間: 09:00 (06:00 UTC)

予報

当レポートは1時間20分前の04:40(UTC)に作成
予報は20日の 06時(UTC)から 21日の 12時(UTC)まで有効
北東の風 8kt
視程10km以上
高度2000ftの雲は散在している
20日の 10時(UTC)から 20日の 13時(UTC)まで徐々に
視程10km以上
1,500メートル以下は雲なし、積乱雲なし
確率 30%
20日の 23時(UTC)から 21日の 02時(UTC)まで
視程: 4000m
高度1200ftの雲は散在している
21日の 03時(UTC)から 21日の 06時(UTC)まで徐々に
高度2000ftの雲は散在している
高度8000ftの千切れ雲あり
確率 40%
21日の 06時(UTC)から 21日の 09時(UTC)まで
高度1700ftの雲はほとんどない, 積乱雲.
高度2500ftの千切れ雲あり
激しい雷雨, 小雨
21日の 09時(UTC)から 21日の 12時(UTC)まで一時的に
高度1500ftの雲はほとんどない, 積乱雲.
高度2500ftの千切れ雲あり
激しい雷雨, 小雨

TAF: LTBA 200440Z 2006/2112 04008KT 9999 SCT020 BECMG 2010/2013 CAVOK PROB30 2023/2102 4000 BR SCT012 BECMG 2103/2106 SCT020 BKN080 PROB40 2106/2109 -TSRA FEW017CB BKN025 TEMPO 2109/2112 -TSRA FEW015CB BKN025

4,000以上の空港の気象観測と天気予報(METAR報とTAF報)

利用可能な観測所は地図上に黄色い丸と赤い丸で示す。

丸の上にカーソルを重ねると観測所名を参照できる。

次にクリックすると気象観測と天気予報を参照できる。

マップの切り替え:黒色「×」印の緑ボタンをクリックして拡大、「-」印の緑ボタンをクリックして縮小、緑色の三角印をクリックして隣りの地図に切り替え


METAR-TAF: